createdAt,value
2024-01-08T00:02:10.045Z,4.20
2024-01-08T00:04:37.346Z,3.97
2024-01-08T00:07:04.604Z,3.80
2024-01-08T00:09:32.043Z,4.33
2024-01-08T00:11:59.246Z,4.30
2024-01-08T00:14:26.467Z,4.30
2024-01-08T00:16:53.821Z,4.27
2024-01-08T00:19:21.227Z,4.37
2024-01-08T00:21:48.398Z,3.97
2024-01-08T00:24:15.687Z,4.57
2024-01-08T00:26:42.833Z,4.10
2024-01-08T00:29:10.126Z,4.23
2024-01-08T00:31:37.300Z,4.20
2024-01-08T00:34:04.695Z,4.17
2024-01-08T00:36:33.017Z,4.53
2024-01-08T00:39:00.186Z,4.37
2024-01-08T00:41:27.478Z,4.20
2024-01-08T00:43:54.702Z,3.97
2024-01-08T00:46:21.908Z,4.67
2024-01-08T00:48:49.184Z,3.90
2024-01-08T00:51:16.374Z,4.37
2024-01-08T00:53:43.543Z,4.50
2024-01-08T00:56:10.811Z,4.80
2024-01-08T00:58:43.052Z,4.10
2024-01-08T01:01:10.593Z,4.20
2024-01-08T01:03:37.915Z,4.53
2024-01-08T01:06:05.423Z,4.77
2024-01-08T01:08:32.861Z,4.77
2024-01-08T01:11:00.136Z,4.43
2024-01-08T01:13:27.371Z,4.50
2024-01-08T01:15:54.593Z,4.07
2024-01-08T01:18:21.864Z,4.43
2024-01-08T01:20:49.654Z,3.93
2024-01-08T01:23:16.852Z,3.63
2024-01-08T01:25:44.089Z,4.90
2024-01-08T01:28:11.279Z,4.43
2024-01-08T01:30:38.468Z,4.57
2024-01-08T01:33:05.810Z,4.43
2024-01-08T01:35:33.303Z,4.20
2024-01-08T01:38:00.542Z,4.57
2024-01-08T01:40:28.231Z,3.93
2024-01-08T01:42:58.387Z,4.60
2024-01-08T01:45:25.747Z,4.27
2024-01-08T01:47:56.223Z,4.23
2024-01-08T01:50:24.069Z,4.10
2024-01-08T01:52:51.470Z,4.00
2024-01-08T01:55:18.692Z,4.20
2024-01-08T01:57:47.339Z,4.47
2024-01-08T02:00:15.512Z,4.63
2024-01-08T02:02:43.889Z,4.50
2024-01-08T02:05:13.181Z,4.50
2024-01-08T02:07:41.361Z,4.80
2024-01-08T02:10:08.877Z,4.43
2024-01-08T02:12:36.030Z,4.47
2024-01-08T02:15:05.565Z,4.20
2024-01-08T02:17:33.242Z,4.50
2024-01-08T02:20:00.533Z,4.40
2024-01-08T02:22:28.290Z,4.47
2024-01-08T02:24:56.090Z,5.13
2024-01-08T02:27:23.237Z,4.60
2024-01-08T02:29:50.392Z,4.33
2024-01-08T02:32:17.575Z,4.30
2024-01-08T02:34:44.756Z,4.80
2024-01-08T02:37:13.506Z,4.90
2024-01-08T02:39:40.772Z,4.60
2024-01-08T02:42:08.116Z,4.50
2024-01-08T02:44:35.383Z,4.03
2024-01-08T02:47:03.160Z,4.17
2024-01-08T02:49:30.332Z,4.43
2024-01-08T02:51:57.677Z,4.77
2024-01-08T02:54:24.842Z,4.53
2024-01-08T02:56:52.248Z,4.90
2024-01-08T02:59:19.512Z,4.80
2024-01-08T03:01:46.701Z,4.33
2024-01-08T03:04:14.573Z,4.63
2024-01-08T03:06:41.916Z,4.90
2024-01-08T03:09:09.192Z,4.63
2024-01-08T03:11:36.367Z,4.40
2024-01-08T03:14:03.556Z,4.50
2024-01-08T03:16:30.728Z,5.00
2024-01-08T03:18:57.894Z,4.67
2024-01-08T03:21:25.179Z,4.63
2024-01-08T03:23:52.494Z,4.83
2024-01-08T03:26:19.673Z,4.70
2024-01-08T03:28:46.842Z,4.03
2024-01-08T03:31:14.068Z,3.80
2024-01-08T03:33:41.295Z,3.93
2024-01-08T03:36:12.061Z,3.93
2024-01-08T03:38:39.464Z,4.90
2024-01-08T03:41:06.673Z,4.23
2024-01-08T03:43:33.832Z,4.73
2024-01-08T03:46:01.087Z,5.10
2024-01-08T03:48:28.254Z,5.10
2024-01-08T03:50:55.408Z,4.60
2024-01-08T03:53:22.622Z,4.73
2024-01-08T03:55:49.946Z,4.47
2024-01-08T03:58:17.105Z,4.77
2024-01-08T04:00:44.820Z,5.03
2024-01-08T04:03:12.197Z,5.10
2024-01-08T04:05:39.799Z,5.40
2024-01-08T04:08:07.240Z,5.17
2024-01-08T04:10:34.449Z,4.90
2024-01-08T04:13:01.646Z,4.27
2024-01-08T04:15:28.787Z,4.80
2024-01-08T04:17:56.125Z,5.50
2024-01-08T04:20:23.471Z,5.40
2024-01-08T04:22:51.459Z,5.40
2024-01-08T04:25:18.976Z,4.97
2024-01-08T04:27:46.190Z,4.47
2024-01-08T04:30:13.579Z,4.97
2024-01-08T04:32:40.981Z,5.63
2024-01-08T04:35:08.496Z,5.03
2024-01-08T04:37:35.728Z,5.23
2024-01-08T04:40:04.150Z,5.70
2024-01-08T04:42:31.325Z,5.67
2024-01-08T04:44:58.552Z,5.13
2024-01-08T04:47:25.789Z,5.63
2024-01-08T04:49:53.254Z,5.47
2024-01-08T04:52:20.440Z,5.60
2024-01-08T04:54:47.928Z,4.87
2024-01-08T04:57:15.170Z,5.07
2024-01-08T04:59:42.918Z,5.27
2024-01-08T05:02:10.794Z,5.30
2024-01-08T05:04:38.028Z,5.13
2024-01-08T05:07:05.329Z,5.70
2024-01-08T05:09:32.512Z,4.90
2024-01-08T05:11:59.680Z,5.00
2024-01-08T05:14:26.890Z,5.70
2024-01-08T05:16:54.095Z,4.97
2024-01-08T05:19:21.582Z,3.77
2024-01-08T05:21:48.790Z,4.90
2024-01-08T05:24:16.612Z,5.30
2024-01-08T05:26:43.779Z,4.67
2024-01-08T05:29:11.025Z,4.73
2024-01-08T05:31:38.221Z,3.80
2024-01-08T05:34:05.629Z,5.17
2024-01-08T05:36:32.804Z,4.63
2024-01-08T05:39:00.876Z,3.23
2024-01-08T05:41:28.114Z,4.80
2024-01-08T05:43:55.333Z,4.20
2024-01-08T05:46:22.577Z,4.50
2024-01-08T05:48:50.614Z,4.30
2024-01-08T05:51:18.840Z,4.20
2024-01-08T05:53:46.022Z,5.13
2024-01-08T05:56:13.284Z,3.50
2024-01-08T05:58:40.529Z,4.27
2024-01-08T06:01:07.746Z,3.90
2024-01-08T06:03:34.962Z,4.23
2024-01-08T06:06:02.837Z,4.07
2024-01-08T06:08:30.234Z,3.73
2024-01-08T06:10:57.420Z,3.90
2024-01-08T06:13:24.564Z,4.00
2024-01-08T06:15:51.700Z,3.30
2024-01-08T06:18:19.044Z,3.90
2024-01-08T06:20:47.435Z,3.23
2024-01-08T06:23:14.715Z,3.60
2024-01-08T06:25:41.982Z,3.40
2024-01-08T06:28:09.099Z,3.13
2024-01-08T06:30:36.284Z,2.33
2024-01-08T06:33:03.788Z,3.40
2024-01-08T06:35:31.119Z,3.03
2024-01-08T06:37:58.402Z,3.20
2024-01-08T06:40:25.593Z,3.33
2024-01-08T06:43:00.638Z,3.00
2024-01-08T06:45:29.211Z,3.20
2024-01-08T06:47:56.504Z,3.07
2024-01-08T06:50:23.807Z,3.60
2024-01-08T06:52:51.161Z,3.87
2024-01-08T06:55:18.283Z,5.97
2024-01-08T06:57:45.454Z,3.83
2024-01-08T07:00:13.046Z,3.60
2024-01-08T07:02:40.304Z,4.83
2024-01-08T07:05:08.064Z,5.10
2024-01-08T07:07:37.170Z,4.33
2024-01-08T07:10:04.851Z,4.77
2024-01-08T07:12:31.992Z,5.43
2024-01-08T07:14:59.147Z,4.27
2024-01-08T07:17:26.490Z,4.47
2024-01-08T07:19:53.822Z,4.93
2024-01-08T07:22:21.215Z,4.77
2024-01-08T07:24:48.352Z,5.00
2024-01-08T07:27:15.531Z,5.40
2024-01-08T07:29:42.714Z,5.17
2024-01-08T07:32:09.935Z,5.50
2024-01-08T07:34:37.160Z,5.30
2024-01-08T07:37:04.406Z,5.90
2024-01-08T07:39:31.520Z,5.53
2024-01-08T07:41:58.644Z,4.43
2024-01-08T07:44:26.247Z,5.33
2024-01-08T07:46:54.519Z,5.90
2024-01-08T07:49:21.861Z,5.93
2024-01-08T07:51:49.023Z,6.03
2024-01-08T07:54:16.194Z,5.83
2024-01-08T07:56:53.080Z,5.83
2024-01-08T07:59:27.046Z,5.53
2024-01-08T08:01:54.429Z,5.27
2024-01-08T08:04:22.242Z,5.57
2024-01-08T08:06:49.544Z,6.07
2024-01-08T08:09:16.722Z,5.80
2024-01-08T08:11:43.980Z,5.53
2024-01-08T08:14:11.198Z,5.70
2024-01-08T08:16:38.341Z,6.33
2024-01-08T08:19:05.852Z,5.63
2024-01-08T08:21:33.981Z,5.83
2024-01-08T08:24:04.372Z,7.27
2024-01-08T08:26:31.753Z,6.17
2024-01-08T08:28:59.306Z,5.67
2024-01-08T08:31:26.572Z,6.43
2024-01-08T08:33:54.598Z,5.77
2024-01-08T08:36:22.060Z,5.77
2024-01-08T08:38:50.537Z,6.57
2024-01-08T08:41:17.863Z,7.00
2024-01-08T08:43:45.104Z,5.57
2024-01-08T08:46:12.294Z,6.30
2024-01-08T08:48:40.469Z,7.13
2024-01-08T08:51:07.652Z,6.43
2024-01-08T08:53:34.842Z,6.93
2024-01-08T08:56:02.199Z,5.90
2024-01-08T08:58:29.822Z,6.37
2024-01-08T09:00:58.113Z,6.70
2024-01-08T09:03:25.578Z,6.87
2024-01-08T09:05:53.674Z,6.20
2024-01-08T09:08:22.078Z,6.77
2024-01-08T09:10:49.604Z,6.97
2024-01-08T09:13:16.818Z,6.77
2024-01-08T09:15:43.944Z,8.17
2024-01-08T09:18:11.253Z,6.70
2024-01-08T09:20:38.854Z,7.33
2024-01-08T09:23:06.230Z,6.40
2024-01-08T09:25:33.452Z,6.70
2024-01-08T09:28:00.898Z,6.70
2024-01-08T09:30:28.114Z,6.80
2024-01-08T09:32:55.493Z,7.30
2024-01-08T09:35:22.896Z,7.53
2024-01-08T09:37:50.206Z,8.10
2024-01-08T09:40:17.386Z,8.63
2024-01-08T09:42:44.568Z,9.33
2024-01-08T09:45:13.270Z,8.13
2024-01-08T09:47:42.309Z,8.60
2024-01-08T09:50:14.877Z,8.23
2024-01-08T09:52:44.164Z,9.03
2024-01-08T09:55:12.004Z,8.00
2024-01-08T09:57:39.493Z,7.83
2024-01-08T10:00:07.249Z,8.17
2024-01-08T10:02:34.589Z,7.13
2024-01-08T10:05:02.234Z,7.13
2024-01-08T10:07:35.690Z,7.47
2024-01-08T10:10:04.116Z,7.60
2024-01-08T10:12:34.323Z,6.10
2024-01-08T10:15:03.734Z,6.20
2024-01-08T10:17:32.266Z,5.67
2024-01-08T10:20:10.198Z,5.70
2024-01-08T10:22:38.738Z,5.80
2024-01-08T10:25:07.197Z,5.43
2024-01-08T10:27:34.843Z,5.60
2024-01-08T10:30:02.410Z,6.07
2024-01-08T10:32:30.755Z,5.80
2024-01-08T10:34:58.148Z,5.70
2024-01-08T10:37:26.321Z,6.47
2024-01-08T10:39:53.862Z,6.53
2024-01-08T10:42:21.222Z,7.73
2024-01-08T10:44:48.465Z,7.50
2024-01-08T10:47:21.242Z,8.63
2024-01-08T10:49:51.612Z,10.27
2024-01-08T10:52:27.988Z,10.10
2024-01-08T10:54:59.235Z,10.03
2024-01-08T10:57:37.829Z,9.13
2024-01-08T11:00:10.197Z,9.13
2024-01-08T11:02:39.078Z,9.00
2024-01-08T11:05:06.902Z,9.47
2024-01-08T11:07:37.725Z,9.33
2024-01-08T11:10:08.279Z,9.30
2024-01-08T11:12:40.533Z,10.57
2024-01-08T11:15:08.035Z,9.73
2024-01-08T11:17:36.257Z,9.50
2024-01-08T11:20:08.498Z,9.50
2024-01-08T11:22:39.095Z,9.47
2024-01-08T11:25:07.111Z,9.77
2024-01-08T11:27:34.527Z,9.83
2024-01-08T11:30:05.242Z,9.50
2024-01-08T11:32:36.524Z,9.50
2024-01-08T11:35:11.177Z,9.33
2024-01-08T11:37:40.982Z,9.83
2024-01-08T11:40:18.914Z,9.40
2024-01-08T11:42:47.233Z,12.80
2024-01-08T11:45:14.652Z,10.30
2024-01-08T11:47:42.365Z,10.20
2024-01-08T11:50:10.065Z,9.50
2024-01-08T11:52:40.977Z,9.77
2024-01-08T11:55:08.616Z,9.67
2024-01-08T11:57:39.200Z,10.67
2024-01-08T12:00:16.415Z,9.57
2024-01-08T12:02:43.888Z,9.10
2024-01-08T12:05:11.457Z,7.70
2024-01-08T12:07:42.315Z,7.50
2024-01-08T12:10:10.216Z,7.20
2024-01-08T12:12:37.633Z,8.33
2024-01-08T12:15:05.678Z,8.23
2024-01-08T12:17:33.239Z,6.60
2024-01-08T12:20:02.573Z,7.13
2024-01-08T12:22:29.840Z,6.27
2024-01-08T12:24:57.582Z,5.53
2024-01-08T12:27:31.994Z,5.50
2024-01-08T12:29:59.644Z,5.13
2024-01-08T12:32:28.209Z,5.43
2024-01-08T12:34:57.023Z,5.20
2024-01-08T12:37:25.208Z,5.43
2024-01-08T12:39:52.443Z,5.37
2024-01-08T12:42:19.948Z,5.43
2024-01-08T12:44:48.773Z,5.20
2024-01-08T12:47:16.566Z,5.17
2024-01-08T12:49:43.799Z,4.87
2024-01-08T12:52:13.315Z,4.93
2024-01-08T12:54:41.602Z,5.13
2024-01-08T12:57:08.925Z,5.60
2024-01-08T12:59:36.787Z,5.60
2024-01-08T13:02:05.106Z,5.40
2024-01-08T13:04:32.896Z,5.93
2024-01-08T13:07:00.159Z,5.87
2024-01-08T13:09:27.393Z,6.20
2024-01-08T13:11:54.786Z,6.00
2024-01-08T13:14:22.173Z,6.13
2024-01-08T13:16:50.008Z,6.07
2024-01-08T13:19:17.584Z,6.27
2024-01-08T13:21:46.766Z,5.60
2024-01-08T13:24:18.455Z,5.90
2024-01-08T13:26:49.204Z,6.00
2024-01-08T13:29:16.690Z,5.37
2024-01-08T13:31:44.182Z,5.93
2024-01-08T13:34:11.397Z,6.30
2024-01-08T13:36:39.089Z,5.73
2024-01-08T13:39:09.974Z,5.57
2024-01-08T13:41:39.178Z,5.83
2024-01-08T13:44:07.358Z,5.87
2024-01-08T13:46:35.551Z,5.77
2024-01-08T13:49:03.181Z,5.83
2024-01-08T13:51:30.570Z,5.80
2024-01-08T13:53:57.795Z,5.57
2024-01-08T13:56:24.969Z,6.10
2024-01-08T13:58:52.324Z,5.80
2024-01-08T14:01:19.685Z,5.77
2024-01-08T14:03:47.097Z,5.30
2024-01-08T14:06:14.902Z,6.07
2024-01-08T14:08:42.698Z,5.60
2024-01-08T14:11:11.817Z,5.50
2024-01-08T14:13:39.236Z,5.70
2024-01-08T14:16:07.857Z,5.67
2024-01-08T14:18:35.297Z,5.70
2024-01-08T14:21:03.434Z,5.33
2024-01-08T14:23:30.761Z,5.77
2024-01-08T14:26:00.598Z,5.30
2024-01-08T14:28:29.633Z,5.77
2024-01-08T14:30:57.040Z,5.10
2024-01-08T14:33:25.440Z,4.80
2024-01-08T14:35:52.887Z,5.20
2024-01-08T14:38:21.536Z,4.90
2024-01-08T14:40:50.019Z,4.80
2024-01-08T14:43:18.453Z,4.90
2024-01-08T14:45:46.094Z,4.80
2024-01-08T14:48:14.296Z,4.60
2024-01-08T14:50:41.601Z,4.97
2024-01-08T14:53:08.905Z,5.27
2024-01-08T14:55:36.131Z,5.17
2024-01-08T14:58:03.291Z,5.07
2024-01-08T15:00:30.497Z,4.90
2024-01-08T15:02:57.751Z,5.03
2024-01-08T15:05:25.372Z,4.93
2024-01-08T15:07:52.769Z,5.33
2024-01-08T15:10:20.181Z,5.00
2024-01-08T15:12:47.422Z,4.97
2024-01-08T15:15:14.598Z,5.03
2024-01-08T15:17:41.964Z,5.17
2024-01-08T15:20:10.159Z,5.43
2024-01-08T15:22:37.562Z,5.50
2024-01-08T15:25:06.247Z,4.90
2024-01-08T15:27:33.597Z,4.97
2024-01-08T15:30:03.477Z,5.33
2024-01-08T15:32:30.705Z,4.90
2024-01-08T15:34:58.417Z,5.07
2024-01-08T15:37:27.604Z,4.90
2024-01-08T15:39:56.061Z,5.30
2024-01-08T15:42:23.240Z,4.90
2024-01-08T15:44:50.704Z,5.73
2024-01-08T15:47:17.916Z,5.07
2024-01-08T15:49:45.238Z,5.70
2024-01-08T15:52:12.560Z,5.37
2024-01-08T15:54:39.699Z,4.93
2024-01-08T15:57:06.838Z,5.30
2024-01-08T15:59:34.005Z,5.17
2024-01-08T16:02:01.257Z,4.97
2024-01-08T16:04:28.424Z,5.10
2024-01-08T16:06:55.568Z,5.00
2024-01-08T16:09:22.790Z,5.10
2024-01-08T16:11:49.956Z,4.50
2024-01-08T16:14:17.188Z,4.93
2024-01-08T16:16:44.378Z,3.97
2024-01-08T16:19:11.608Z,4.13
2024-01-08T16:21:38.819Z,4.00
2024-01-08T16:24:10.923Z,4.13
2024-01-08T16:26:43.079Z,3.57
2024-01-08T16:29:10.648Z,3.47
2024-01-08T16:31:37.930Z,3.30
2024-01-08T16:34:05.434Z,3.47
2024-01-08T16:36:32.802Z,3.60
2024-01-08T16:39:01.005Z,3.37
2024-01-08T16:41:28.286Z,3.57
2024-01-08T16:43:55.618Z,3.27
2024-01-08T16:46:22.879Z,3.00
2024-01-08T16:48:50.343Z,2.90
2024-01-08T16:51:17.958Z,3.20
2024-01-08T16:53:45.290Z,3.10
2024-01-08T16:56:12.638Z,3.07
2024-01-08T16:58:39.803Z,3.50
2024-01-08T17:01:07.214Z,3.70
2024-01-08T17:03:34.628Z,3.30
2024-01-08T17:06:03.933Z,3.63
2024-01-08T17:08:32.850Z,3.70
2024-01-08T17:11:00.072Z,3.10
2024-01-08T17:13:27.234Z,3.10
2024-01-08T17:15:54.390Z,3.40
2024-01-08T17:18:21.806Z,3.10
2024-01-08T17:20:49.553Z,3.20
2024-01-08T17:23:16.895Z,3.30
2024-01-08T17:25:44.289Z,3.30
2024-01-08T17:28:11.622Z,3.20
2024-01-08T17:30:39.741Z,3.50
2024-01-08T17:33:07.476Z,2.77
2024-01-08T17:35:35.547Z,3.53
2024-01-08T17:38:02.873Z,3.30
2024-01-08T17:40:31.057Z,3.87
2024-01-08T17:42:58.227Z,3.47
2024-01-08T17:45:25.439Z,3.80
2024-01-08T17:47:52.730Z,3.37
2024-01-08T17:50:20.107Z,3.53
2024-01-08T17:52:47.318Z,3.17
2024-01-08T17:55:14.568Z,3.27
2024-01-08T17:57:41.766Z,3.00
2024-01-08T18:00:09.796Z,2.80
2024-01-08T18:02:37.334Z,2.67
2024-01-08T18:05:04.735Z,2.60
2024-01-08T18:07:32.115Z,2.80
2024-01-08T18:09:59.423Z,3.27
2024-01-08T18:12:27.930Z,3.40
2024-01-08T18:14:55.239Z,3.20
2024-01-08T18:17:22.492Z,3.20
2024-01-08T18:19:49.876Z,3.70
2024-01-08T18:22:17.391Z,3.60
2024-01-08T18:24:44.608Z,2.90
2024-01-08T18:27:12.254Z,2.70
2024-01-08T18:29:39.527Z,2.60
2024-01-08T18:32:08.259Z,3.10
2024-01-08T18:34:35.738Z,3.07
2024-01-08T18:37:03.046Z,3.40
2024-01-08T18:39:30.196Z,3.10
2024-01-08T18:41:57.695Z,3.23
2024-01-08T18:44:24.965Z,3.03
2024-01-08T18:46:52.192Z,3.00
2024-01-08T18:49:19.537Z,3.20
2024-01-08T18:51:46.784Z,2.60
2024-01-08T18:54:13.981Z,2.90
2024-01-08T18:56:41.376Z,2.93
2024-01-08T18:59:08.722Z,3.17
2024-01-08T19:01:35.885Z,3.37
2024-01-08T19:04:05.128Z,3.13
2024-01-08T19:06:32.593Z,3.10
2024-01-08T19:09:00.603Z,3.03
2024-01-08T19:11:27.833Z,3.27
2024-01-08T19:13:54.978Z,3.03
2024-01-08T19:16:22.697Z,2.90
2024-01-08T19:18:50.452Z,2.70
2024-01-08T19:21:18.019Z,3.13
2024-01-08T19:23:45.417Z,2.70
2024-01-08T19:26:12.906Z,2.67
2024-01-08T19:28:41.250Z,2.90
2024-01-08T19:31:12.924Z,2.90
2024-01-08T19:33:40.357Z,2.90
2024-01-08T19:36:08.340Z,2.70
2024-01-08T19:38:35.640Z,2.60
2024-01-08T19:41:02.960Z,2.40
2024-01-08T19:43:30.214Z,2.37
2024-01-08T19:45:57.339Z,2.50
2024-01-08T19:48:24.735Z,2.40
2024-01-08T19:50:52.148Z,2.70
2024-01-08T19:53:19.339Z,2.37
2024-01-08T19:55:46.938Z,2.13
2024-01-08T19:58:14.130Z,2.50
2024-01-08T20:00:41.390Z,2.40
2024-01-08T20:03:08.581Z,2.53
2024-01-08T20:05:35.813Z,2.13
2024-01-08T20:08:03.012Z,2.40
2024-01-08T20:10:30.274Z,2.10
2024-01-08T20:12:57.424Z,2.30
2024-01-08T20:15:24.637Z,2.17
2024-01-08T20:17:51.871Z,2.20
2024-01-08T20:20:19.254Z,2.70
2024-01-08T20:22:46.505Z,2.53
2024-01-08T20:25:14.975Z,2.50
2024-01-08T20:27:42.278Z,2.63
2024-01-08T20:30:09.690Z,2.60
2024-01-08T20:32:37.079Z,2.53
2024-01-08T20:35:04.703Z,2.50
2024-01-08T20:37:31.891Z,2.50
2024-01-08T20:39:59.414Z,2.40
2024-01-08T20:42:26.559Z,2.60
2024-01-08T20:44:53.747Z,2.60
2024-01-08T20:47:21.030Z,2.93
2024-01-08T20:49:51.457Z,2.47
2024-01-08T20:52:19.375Z,2.50
2024-01-08T20:54:46.597Z,2.40
2024-01-08T20:57:13.787Z,2.37
2024-01-08T20:59:43.286Z,2.53
2024-01-08T21:02:10.719Z,2.40
2024-01-08T21:04:40.053Z,2.83
2024-01-08T21:07:07.219Z,2.63
2024-01-08T21:09:34.380Z,2.70
2024-01-08T21:12:01.515Z,2.93
2024-01-08T21:14:28.687Z,2.53
2024-01-08T21:16:55.910Z,2.90
2024-01-08T21:19:23.205Z,3.03
2024-01-08T21:21:50.551Z,2.57
2024-01-08T21:24:20.137Z,2.90
2024-01-08T21:26:48.645Z,2.80
2024-01-08T21:29:15.957Z,2.50
2024-01-08T21:31:48.357Z,2.43
2024-01-08T21:34:18.455Z,2.50
2024-01-08T21:36:45.821Z,2.67
2024-01-08T21:39:13.232Z,2.40
2024-01-08T21:41:43.909Z,2.60
2024-01-08T21:44:11.961Z,2.17
2024-01-08T21:46:39.181Z,2.50
2024-01-08T21:49:06.516Z,2.50
2024-01-08T21:51:33.769Z,2.57
2024-01-08T21:54:01.394Z,2.50
2024-01-08T21:56:28.594Z,2.20
2024-01-08T21:58:56.571Z,2.47
2024-01-08T22:01:23.906Z,2.47
2024-01-08T22:03:52.258Z,2.17
2024-01-08T22:06:19.481Z,2.40
2024-01-08T22:08:46.778Z,2.47
2024-01-08T22:11:14.173Z,2.63
2024-01-08T22:13:41.483Z,2.50
2024-01-08T22:16:12.139Z,2.90
2024-01-08T22:18:42.173Z,2.50
2024-01-08T22:21:09.492Z,2.80
2024-01-08T22:23:36.778Z,2.63
2024-01-08T22:26:04.197Z,2.73
2024-01-08T22:28:31.409Z,2.70
2024-01-08T22:30:58.746Z,2.60
2024-01-08T22:33:26.234Z,2.40
2024-01-08T22:35:55.136Z,2.70
2024-01-08T22:38:22.320Z,2.90
2024-01-08T22:40:49.911Z,2.43
2024-01-08T22:43:17.071Z,2.90
2024-01-08T22:45:44.262Z,3.00
2024-01-08T22:48:11.629Z,2.97
2024-01-08T22:50:38.873Z,3.20
2024-01-08T22:53:06.117Z,3.23
2024-01-08T22:55:33.296Z,3.60
2024-01-08T22:58:00.501Z,3.87
2024-01-08T23:00:27.995Z,4.40
2024-01-08T23:02:55.267Z,4.13
2024-01-08T23:05:22.658Z,4.50
2024-01-08T23:07:49.849Z,4.30
2024-01-08T23:10:17.007Z,4.20
2024-01-08T23:12:44.154Z,4.47
2024-01-08T23:15:16.537Z,4.63
2024-01-08T23:17:44.259Z,4.87
2024-01-08T23:20:11.567Z,5.17
2024-01-08T23:22:38.806Z,5.20
2024-01-08T23:25:06.184Z,6.00
2024-01-08T23:27:33.377Z,6.50
2024-01-08T23:30:01.663Z,6.03
2024-01-08T23:32:29.038Z,6.47
2024-01-08T23:34:56.321Z,6.17
2024-01-08T23:37:23.531Z,6.43
2024-01-08T23:39:50.679Z,6.93
2024-01-08T23:42:17.813Z,7.27
2024-01-08T23:44:44.996Z,7.60
2024-01-08T23:47:12.281Z,7.80
2024-01-08T23:49:39.644Z,8.37
2024-01-08T23:52:06.889Z,7.80
2024-01-08T23:54:34.093Z,8.00
2024-01-08T23:57:01.316Z,9.30
2024-01-08T23:59:29.282Z,9.30
